createdAt,value
2018-06-19T00:00:37.192Z,1011.48
2018-06-19T00:01:37.178Z,1011.48
2018-06-19T00:02:37.164Z,1011.49
2018-06-19T00:03:37.148Z,1011.48
2018-06-19T00:04:37.139Z,1011.48
2018-06-19T00:05:37.128Z,1011.49
2018-06-19T00:06:37.107Z,1011.44
2018-06-19T00:07:37.115Z,1011.46
2018-06-19T00:08:37.073Z,1011.43
2018-06-19T00:09:37.061Z,1011.43
2018-06-19T00:10:37.044Z,1011.41
2018-06-19T00:11:37.028Z,1011.40
2018-06-19T00:12:37.017Z,1011.36
2018-06-19T00:13:37.002Z,1011.43
2018-06-19T00:14:36.988Z,1011.43
2018-06-19T00:15:36.969Z,1011.42
2018-06-19T00:16:36.961Z,1011.41
2018-06-19T00:17:36.941Z,1011.43
2018-06-19T00:18:36.937Z,1011.41
2018-06-19T00:19:36.912Z,1011.42
2018-06-19T00:20:36.894Z,1011.45
2018-06-19T00:21:36.881Z,1011.42
2018-06-19T00:22:36.867Z,1011.44
2018-06-19T00:23:36.852Z,1011.43
2018-06-19T00:24:36.837Z,1011.45
2018-06-19T00:25:36.830Z,1011.40
2018-06-19T00:26:36.807Z,1011.38
2018-06-19T00:27:36.798Z,1011.35
2018-06-19T00:28:36.777Z,1011.38
2018-06-19T00:29:36.760Z,1011.35
2018-06-19T00:30:36.748Z,1011.42
2018-06-19T00:31:36.737Z,1011.43
2018-06-19T00:32:36.718Z,1011.41
2018-06-19T00:33:36.702Z,1011.45
2018-06-19T00:34:36.683Z,1011.47
2018-06-19T00:35:36.671Z,1011.49
2018-06-19T00:36:36.660Z,1011.43
2018-06-19T00:37:36.649Z,1011.46
2018-06-19T00:38:36.631Z,1011.45
2018-06-19T00:39:36.614Z,1011.45
2018-06-19T00:40:36.592Z,1011.42
2018-06-19T00:41:36.585Z,1011.43
2018-06-19T00:42:36.565Z,1011.42
2018-06-19T00:43:36.548Z,1011.42
2018-06-19T00:44:36.541Z,1011.43
2018-06-19T00:45:36.531Z,1011.41
2018-06-19T00:46:36.510Z,1011.37
2018-06-19T00:47:36.495Z,1011.37
2018-06-19T00:48:36.480Z,1011.37
2018-06-19T00:49:36.467Z,1011.38
2018-06-19T00:50:36.451Z,1011.39
2018-06-19T00:51:36.437Z,1011.38
2018-06-19T00:52:36.420Z,1011.36
2018-06-19T00:53:36.406Z,1011.36
2018-06-19T00:54:36.390Z,1011.33
2018-06-19T00:55:36.375Z,1011.33
2018-06-19T00:56:36.392Z,1011.33
2018-06-19T00:57:36.348Z,1011.36
2018-06-19T00:58:36.329Z,1011.38
2018-06-19T00:59:36.318Z,1011.39
2018-06-19T01:00:36.298Z,1011.37
2018-06-19T01:01:36.283Z,1011.34
2018-06-19T01:02:36.271Z,1011.34
2018-06-19T01:03:36.258Z,1011.32
2018-06-19T01:04:36.240Z,1011.35
2018-06-19T01:05:36.225Z,1011.38
2018-06-19T01:06:36.211Z,1011.37
2018-06-19T01:07:36.195Z,1011.39
2018-06-19T01:08:36.183Z,1011.41
2018-06-19T01:09:36.168Z,1011.40
2018-06-19T01:10:36.152Z,1011.44
2018-06-19T01:11:36.139Z,1011.45
2018-06-19T01:12:36.122Z,1011.44
2018-06-19T01:13:36.108Z,1011.49
2018-06-19T01:14:36.091Z,1011.48
2018-06-19T01:15:36.078Z,1011.49
2018-06-19T01:16:36.063Z,1011.50
2018-06-19T01:17:36.050Z,1011.52
2018-06-19T01:18:36.035Z,1011.52
2018-06-19T01:19:36.015Z,1011.55
2018-06-19T01:20:36.006Z,1011.52
2018-06-19T01:21:35.995Z,1011.52
2018-06-19T01:22:35.975Z,1011.47
2018-06-19T01:23:35.961Z,1011.48
2018-06-19T01:24:35.942Z,1011.48
2018-06-19T01:25:35.927Z,1011.53
2018-06-19T01:26:35.913Z,1011.52
2018-06-19T01:27:35.896Z,1011.54
2018-06-19T01:28:35.895Z,1011.50
2018-06-19T01:29:35.873Z,1011.52
2018-06-19T01:30:35.857Z,1011.50
2018-06-19T01:31:35.843Z,1011.51
2018-06-19T01:32:35.822Z,1011.51
2018-06-19T01:33:35.809Z,1011.46
2018-06-19T01:34:35.797Z,1011.41
2018-06-19T01:35:35.784Z,1011.41
2018-06-19T01:36:35.763Z,1011.39
2018-06-19T01:37:35.756Z,1011.38
2018-06-19T01:38:35.736Z,1011.45
2018-06-19T01:39:35.720Z,1011.42
2018-06-19T01:40:35.709Z,1011.40
2018-06-19T01:41:35.692Z,1011.46
2018-06-19T01:42:35.677Z,1011.49
2018-06-19T01:43:35.667Z,1011.49
2018-06-19T01:44:35.644Z,1011.50
2018-06-19T01:45:35.630Z,1011.49
2018-06-19T01:46:35.617Z,1011.46
2018-06-19T01:47:35.600Z,1011.49
2018-06-19T01:48:35.589Z,1011.50
2018-06-19T01:49:35.573Z,1011.48
2018-06-19T01:50:35.556Z,1011.52
2018-06-19T01:51:35.541Z,1011.54
2018-06-19T01:52:35.530Z,1011.54
2018-06-19T01:53:35.515Z,1011.55
2018-06-19T01:54:35.502Z,1011.57
2018-06-19T01:55:35.485Z,1011.53
2018-06-19T01:56:35.466Z,1011.53
2018-06-19T01:57:35.453Z,1011.52
2018-06-19T01:58:35.439Z,1011.56
2018-06-19T01:59:35.422Z,1011.56
2018-06-19T02:00:35.409Z,1011.50
2018-06-19T02:01:35.429Z,1011.47
2018-06-19T02:02:35.380Z,1011.52
2018-06-19T02:03:35.367Z,1011.50
2018-06-19T02:04:35.347Z,1011.55
2018-06-19T02:05:35.334Z,1011.53
2018-06-19T02:06:35.320Z,1011.51
2018-06-19T02:07:35.307Z,1011.49
2018-06-19T02:08:35.288Z,1011.49
2018-06-19T02:09:35.276Z,1011.50
2018-06-19T02:10:35.259Z,1011.49
2018-06-19T02:11:35.246Z,1011.49
2018-06-19T02:12:35.232Z,1011.49
2018-06-19T02:13:35.216Z,1011.49
2018-06-19T02:14:35.204Z,1011.48
2018-06-19T02:15:35.190Z,1011.52
2018-06-19T02:16:35.169Z,1011.52
2018-06-19T02:17:35.156Z,1011.51
2018-06-19T02:18:35.150Z,1011.49
2018-06-19T02:19:35.157Z,1011.52
2018-06-19T02:20:35.113Z,1011.54
2018-06-19T02:21:35.143Z,1011.57
2018-06-19T02:22:35.081Z,1011.56
2018-06-19T02:23:35.066Z,1011.58
2018-06-19T02:24:35.054Z,1011.60
2018-06-19T02:25:35.038Z,1011.58
2018-06-19T02:26:35.023Z,1011.58
2018-06-19T02:27:35.012Z,1011.60
2018-06-19T02:28:34.993Z,1011.61
2018-06-19T02:29:34.977Z,1011.59
2018-06-19T02:30:34.970Z,1011.62
2018-06-19T02:31:34.949Z,1011.58
2018-06-19T02:32:34.930Z,1011.58
2018-06-19T02:33:34.917Z,1011.57
2018-06-19T02:34:34.904Z,1011.61
2018-06-19T02:35:34.887Z,1011.64
2018-06-19T02:36:34.878Z,1011.66
2018-06-19T02:37:34.860Z,1011.68
2018-06-19T02:38:34.853Z,1011.65
2018-06-19T02:39:34.830Z,1011.65
2018-06-19T02:40:34.816Z,1011.65
2018-06-19T02:41:34.801Z,1011.69
2018-06-19T02:42:34.785Z,1011.65
2018-06-19T02:43:34.774Z,1011.68
2018-06-19T02:44:34.754Z,1011.72
2018-06-19T02:45:34.739Z,1011.76
2018-06-19T02:46:34.729Z,1011.77
2018-06-19T02:47:34.708Z,1011.78
2018-06-19T02:48:34.698Z,1011.75
2018-06-19T02:49:34.685Z,1011.75
2018-06-19T02:50:34.668Z,1011.73
2018-06-19T02:51:34.653Z,1011.75
2018-06-19T02:52:34.631Z,1011.73
2018-06-19T02:53:34.620Z,1011.74
2018-06-19T02:54:34.644Z,1011.77
2018-06-19T02:55:34.594Z,1011.79
2018-06-19T02:56:34.577Z,1011.85
2018-06-19T02:57:34.557Z,1011.87
2018-06-19T02:58:34.544Z,1011.90
2018-06-19T02:59:34.523Z,1011.92
2018-06-19T03:00:34.520Z,1011.89
2018-06-19T03:01:34.503Z,1011.87
2018-06-19T03:02:34.486Z,1011.87
2018-06-19T03:03:34.516Z,1011.88
2018-06-19T03:04:34.497Z,1011.88
2018-06-19T03:05:34.439Z,1011.92
2018-06-19T03:06:34.429Z,1011.91
2018-06-19T03:07:34.409Z,1011.96
2018-06-19T03:08:34.399Z,1011.95
2018-06-19T03:09:34.381Z,1011.95
2018-06-19T03:10:34.364Z,1011.96
2018-06-19T03:11:34.349Z,1012.00
2018-06-19T03:12:34.338Z,1011.99
2018-06-19T03:13:34.326Z,1012.03
2018-06-19T03:14:34.307Z,1012.05
2018-06-19T03:15:34.294Z,1012.06
2018-06-19T03:16:34.272Z,1012.03
2018-06-19T03:17:34.261Z,1012.06
2018-06-19T03:18:34.248Z,1012.05
2018-06-19T03:19:34.230Z,1011.99
2018-06-19T03:20:34.217Z,1012.05
2018-06-19T03:21:34.203Z,1011.98
2018-06-19T03:22:34.187Z,1011.99
2018-06-19T03:23:34.177Z,1012.00
2018-06-19T03:24:34.176Z,1012.00
2018-06-19T03:25:34.139Z,1012.00
2018-06-19T03:26:34.132Z,1011.97
2018-06-19T03:27:34.111Z,1012.01
2018-06-19T03:28:34.093Z,1012.03
2018-06-19T03:29:34.079Z,1012.06
2018-06-19T03:30:34.065Z,1012.00
2018-06-19T03:31:34.051Z,1012.04
2018-06-19T03:32:34.040Z,1012.05
2018-06-19T03:33:34.022Z,1012.05
2018-06-19T03:34:34.029Z,1012.03
2018-06-19T03:35:33.993Z,1012.05
2018-06-19T03:36:34.007Z,1012.08
2018-06-19T03:37:33.960Z,1012.07
2018-06-19T03:38:33.946Z,1012.08
2018-06-19T03:39:33.932Z,1012.08
2018-06-19T03:40:33.921Z,1012.01
2018-06-19T03:41:33.902Z,1012.04
